sensor_id;sensor_type;location;lat;lon;timestamp;P1;durP1;ratioP1;P2;durP2;ratioP2
68250;SDS011;55066;51.560;4.642;2023-09-18T00:02:06;23.43;;;13.33;;
68250;SDS011;55066;51.560;4.642;2023-09-18T00:04:32;23.43;;;13.27;;
68250;SDS011;55066;51.560;4.642;2023-09-18T00:06:58;25.13;;;12.88;;
68250;SDS011;55066;51.560;4.642;2023-09-18T00:09:24;23.65;;;13.25;;
68250;SDS011;55066;51.560;4.642;2023-09-18T00:11:50;25.50;;;13.70;;
68250;SDS011;55066;51.560;4.642;2023-09-18T00:14:15;30.30;;;13.20;;
68250;SDS011;55066;51.560;4.642;2023-09-18T00:16:40;23.20;;;13.35;;
68250;SDS011;55066;51.560;4.642;2023-09-18T00:19:06;23.80;;;12.80;;
68250;SDS011;55066;51.560;4.642;2023-09-18T00:21:33;22.98;;;13.15;;
68250;SDS011;55066;51.560;4.642;2023-09-18T00:23:59;23.58;;;12.07;;
68250;SDS011;55066;51.560;4.642;2023-09-18T00:26:25;24.03;;;12.80;;
68250;SDS011;55066;51.560;4.642;2023-09-18T00:28:52;23.10;;;12.73;;
68250;SDS011;55066;51.560;4.642;2023-09-18T00:31:18;22.37;;;12.57;;
68250;SDS011;55066;51.560;4.642;2023-09-18T00:33:45;21.67;;;12.18;;
68250;SDS011;55066;51.560;4.642;2023-09-18T00:36:11;24.20;;;12.55;;
68250;SDS011;55066;51.560;4.642;2023-09-18T00:38:36;23.53;;;12.43;;
68250;SDS011;55066;51.560;4.642;2023-09-18T00:41:03;23.15;;;12.80;;
68250;SDS011;55066;51.560;4.642;2023-09-18T00:43:29;24.33;;;13.33;;
68250;SDS011;55066;51.560;4.642;2023-09-18T00:45:54;24.37;;;13.17;;
68250;SDS011;55066;51.560;4.642;2023-09-18T00:48:21;21.53;;;13.03;;
68250;SDS011;55066;51.560;4.642;2023-09-18T00:50:47;21.60;;;12.55;;
68250;SDS011;55066;51.560;4.642;2023-09-18T00:53:16;20.63;;;12.98;;
68250;SDS011;55066;51.560;4.642;2023-09-18T00:55:45;21.88;;;13.02;;
68250;SDS011;55066;51.560;4.642;2023-09-18T00:58:12;26.17;;;14.03;;
68250;SDS011;55066;51.560;4.642;2023-09-18T01:00:39;24.67;;;13.35;;
68250;SDS011;55066;51.560;4.642;2023-09-18T01:03:05;27.60;;;13.18;;
68250;SDS011;55066;51.560;4.642;2023-09-18T01:05:34;24.98;;;13.68;;
68250;SDS011;55066;51.560;4.642;2023-09-18T01:08:01;24.35;;;13.32;;
68250;SDS011;55066;51.560;4.642;2023-09-18T01:10:29;22.37;;;12.07;;
68250;SDS011;55066;51.560;4.642;2023-09-18T01:13:11;23.25;;;13.15;;
68250;SDS011;55066;51.560;4.642;2023-09-18T01:15:46;19.65;;;12.18;;
68250;SDS011;55066;51.560;4.642;2023-09-18T01:18:16;21.38;;;12.45;;
68250;SDS011;55066;51.560;4.642;2023-09-18T01:20:43;25.30;;;12.07;;
68250;SDS011;55066;51.560;4.642;2023-09-18T01:23:10;26.73;;;12.55;;
68250;SDS011;55066;51.560;4.642;2023-09-18T01:25:36;25.15;;;12.80;;
68250;SDS011;55066;51.560;4.642;2023-09-18T01:28:02;25.30;;;13.23;;
68250;SDS011;55066;51.560;4.642;2023-09-18T01:30:28;24.17;;;12.68;;
68250;SDS011;55066;51.560;4.642;2023-09-18T01:32:55;26.77;;;13.83;;
68250;SDS011;55066;51.560;4.642;2023-09-18T01:35:23;24.08;;;13.27;;
68250;SDS011;55066;51.560;4.642;2023-09-18T01:37:57;23.30;;;12.55;;
68250;SDS011;55066;51.560;4.642;2023-09-18T01:40:25;20.60;;;12.10;;
68250;SDS011;55066;51.560;4.642;2023-09-18T01:42:51;23.27;;;12.68;;
68250;SDS011;55066;51.560;4.642;2023-09-18T01:45:17;25.40;;;12.63;;
68250;SDS011;55066;51.560;4.642;2023-09-18T01:47:45;25.00;;;12.05;;
68250;SDS011;55066;51.560;4.642;2023-09-18T01:50:11;20.92;;;11.88;;
68250;SDS011;55066;51.560;4.642;2023-09-18T01:52:37;25.87;;;11.70;;
68250;SDS011;55066;51.560;4.642;2023-09-18T01:55:03;22.42;;;11.45;;
68250;SDS011;55066;51.560;4.642;2023-09-18T01:57:32;23.00;;;10.80;;
68250;SDS011;55066;51.560;4.642;2023-09-18T01:59:58;19.20;;;11.20;;
68250;SDS011;55066;51.560;4.642;2023-09-18T02:02:24;24.13;;;11.07;;
68250;SDS011;55066;51.560;4.642;2023-09-18T02:04:49;20.10;;;10.82;;
68250;SDS011;55066;51.560;4.642;2023-09-18T02:07:15;19.27;;;10.60;;
68250;SDS011;55066;51.560;4.642;2023-09-18T02:09:40;20.97;;;10.77;;
68250;SDS011;55066;51.560;4.642;2023-09-18T02:12:06;19.08;;;9.85;;
68250;SDS011;55066;51.560;4.642;2023-09-18T02:14:31;18.80;;;9.40;;
68250;SDS011;55066;51.560;4.642;2023-09-18T02:16:59;17.17;;;9.52;;
68250;SDS011;55066;51.560;4.642;2023-09-18T02:19:25;17.77;;;9.57;;
68250;SDS011;55066;51.560;4.642;2023-09-18T02:21:51;17.50;;;9.23;;
68250;SDS011;55066;51.560;4.642;2023-09-18T02:24:17;18.83;;;9.57;;
68250;SDS011;55066;51.560;4.642;2023-09-18T02:26:42;18.90;;;9.43;;
68250;SDS011;55066;51.560;4.642;2023-09-18T02:29:08;17.77;;;9.70;;
68250;SDS011;55066;51.560;4.642;2023-09-18T02:31:39;18.90;;;9.73;;
68250;SDS011;55066;51.560;4.642;2023-09-18T02:34:05;16.25;;;9.40;;
68250;SDS011;55066;51.560;4.642;2023-09-18T02:36:32;20.45;;;9.50;;
68250;SDS011;55066;51.560;4.642;2023-09-18T02:38:59;19.57;;;9.63;;
68250;SDS011;55066;51.560;4.642;2023-09-18T02:41:25;21.33;;;9.10;;
68250;SDS011;55066;51.560;4.642;2023-09-18T02:43:50;18.53;;;8.53;;
68250;SDS011;55066;51.560;4.642;2023-09-18T02:46:16;24.42;;;9.38;;
68250;SDS011;55066;51.560;4.642;2023-09-18T02:48:42;25.00;;;8.53;;
68250;SDS011;55066;51.560;4.642;2023-09-18T02:51:07;22.57;;;9.67;;
68250;SDS011;55066;51.560;4.642;2023-09-18T02:53:33;34.20;;;10.05;;
68250;SDS011;55066;51.560;4.642;2023-09-18T02:55:59;26.40;;;10.07;;
68250;SDS011;55066;51.560;4.642;2023-09-18T02:58:25;22.58;;;10.13;;
68250;SDS011;55066;51.560;4.642;2023-09-18T03:00:52;19.95;;;9.90;;
68250;SDS011;55066;51.560;4.642;2023-09-18T03:03:22;16.65;;;8.07;;
68250;SDS011;55066;51.560;4.642;2023-09-18T03:05:48;14.23;;;7.93;;
68250;SDS011;55066;51.560;4.642;2023-09-18T03:08:14;15.35;;;7.90;;
68250;SDS011;55066;51.560;4.642;2023-09-18T03:10:41;14.67;;;8.17;;
68250;SDS011;55066;51.560;4.642;2023-09-18T03:13:08;12.82;;;7.00;;
68250;SDS011;55066;51.560;4.642;2023-09-18T03:15:35;13.70;;;6.53;;
68250;SDS011;55066;51.560;4.642;2023-09-18T03:18:02;10.55;;;5.70;;
68250;SDS011;55066;51.560;4.642;2023-09-18T03:20:28;12.98;;;5.53;;
68250;SDS011;55066;51.560;4.642;2023-09-18T03:22:55;13.37;;;6.47;;
68250;SDS011;55066;51.560;4.642;2023-09-18T03:25:26;13.73;;;7.18;;
68250;SDS011;55066;51.560;4.642;2023-09-18T03:27:52;14.02;;;7.15;;
68250;SDS011;55066;51.560;4.642;2023-09-18T03:30:20;11.88;;;6.50;;
68250;SDS011;55066;51.560;4.642;2023-09-18T03:32:49;11.50;;;6.43;;
68250;SDS011;55066;51.560;4.642;2023-09-18T03:35:15;12.88;;;6.03;;
68250;SDS011;55066;51.560;4.642;2023-09-18T03:40:15;9.65;;;5.47;;
68250;SDS011;55066;51.560;4.642;2023-09-18T03:42:42;11.98;;;6.00;;
68250;SDS011;55066;51.560;4.642;2023-09-18T03:45:07;12.70;;;6.40;;
68250;SDS011;55066;51.560;4.642;2023-09-18T03:47:38;14.50;;;6.53;;
68250;SDS011;55066;51.560;4.642;2023-09-18T03:50:05;12.40;;;7.32;;
68250;SDS011;55066;51.560;4.642;2023-09-18T03:52:32;15.70;;;7.50;;
68250;SDS011;55066;51.560;4.642;2023-09-18T03:54:57;12.00;;;6.13;;
68250;SDS011;55066;51.560;4.642;2023-09-18T03:57:23;12.40;;;7.00;;
68250;SDS011;55066;51.560;4.642;2023-09-18T03:59:49;19.02;;;8.05;;
68250;SDS011;55066;51.560;4.642;2023-09-18T04:02:16;16.50;;;8.53;;
68250;SDS011;55066;51.560;4.642;2023-09-18T04:04:41;13.98;;;7.95;;
68250;SDS011;55066;51.560;4.642;2023-09-18T04:07:07;15.47;;;9.10;;
68250;SDS011;55066;51.560;4.642;2023-09-18T04:09:33;18.30;;;9.40;;
68250;SDS011;55066;51.560;4.642;2023-09-18T04:12:02;17.08;;;9.52;;
68250;SDS011;55066;51.560;4.642;2023-09-18T04:14:30;15.38;;;9.05;;
68250;SDS011;55066;51.560;4.642;2023-09-18T04:16:55;16.30;;;9.90;;
68250;SDS011;55066;51.560;4.642;2023-09-18T04:19:21;18.53;;;8.83;;
68250;SDS011;55066;51.560;4.642;2023-09-18T04:21:46;18.43;;;8.83;;
68250;SDS011;55066;51.560;4.642;2023-09-18T04:24:13;16.83;;;8.80;;
68250;SDS011;55066;51.560;4.642;2023-09-18T04:26:38;17.80;;;8.63;;
68250;SDS011;55066;51.560;4.642;2023-09-18T04:29:05;15.55;;;9.05;;
68250;SDS011;55066;51.560;4.642;2023-09-18T04:31:30;17.63;;;9.47;;
68250;SDS011;55066;51.560;4.642;2023-09-18T04:33:56;16.45;;;8.80;;
68250;SDS011;55066;51.560;4.642;2023-09-18T04:36:22;20.23;;;8.98;;
68250;SDS011;55066;51.560;4.642;2023-09-18T04:38:48;20.17;;;8.23;;
68250;SDS011;55066;51.560;4.642;2023-09-18T04:41:15;15.27;;;8.48;;
68250;SDS011;55066;51.560;4.642;2023-09-18T04:43:40;18.00;;;8.47;;
68250;SDS011;55066;51.560;4.642;2023-09-18T04:46:07;19.80;;;7.22;;
68250;SDS011;55066;51.560;4.642;2023-09-18T04:48:33;14.48;;;7.10;;
68250;SDS011;55066;51.560;4.642;2023-09-18T04:51:00;14.45;;;6.90;;
68250;SDS011;55066;51.560;4.642;2023-09-18T04:53:30;11.63;;;6.67;;
68250;SDS011;55066;51.560;4.642;2023-09-18T04:55:56;16.40;;;6.55;;
68250;SDS011;55066;51.560;4.642;2023-09-18T04:58:22;12.98;;;6.32;;
68250;SDS011;55066;51.560;4.642;2023-09-18T05:00:57;12.33;;;5.67;;
68250;SDS011;55066;51.560;4.642;2023-09-18T05:03:24;9.05;;;4.45;;
68250;SDS011;55066;51.560;4.642;2023-09-18T05:05:52;11.35;;;4.30;;
68250;SDS011;55066;51.560;4.642;2023-09-18T05:08:17;7.75;;;3.30;;
68250;SDS011;55066;51.560;4.642;2023-09-18T05:10:44;7.10;;;3.00;;
68250;SDS011;55066;51.560;4.642;2023-09-18T05:13:10;7.40;;;2.60;;
68250;SDS011;55066;51.560;4.642;2023-09-18T05:15:37;5.65;;;2.90;;
68250;SDS011;55066;51.560;4.642;2023-09-18T05:18:02;5.80;;;2.87;;
68250;SDS011;55066;51.560;4.642;2023-09-18T05:20:29;4.47;;;2.47;;
68250;SDS011;55066;51.560;4.642;2023-09-18T05:22:56;7.47;;;2.83;;
68250;SDS011;55066;51.560;4.642;2023-09-18T05:25:23;7.68;;;2.97;;
68250;SDS011;55066;51.560;4.642;2023-09-18T05:27:54;7.47;;;2.50;;
68250;SDS011;55066;51.560;4.642;2023-09-18T05:30:26;6.60;;;2.60;;
68250;SDS011;55066;51.560;4.642;2023-09-18T05:32:56;4.55;;;2.50;;
68250;SDS011;55066;51.560;4.642;2023-09-18T05:35:22;5.75;;;2.72;;
68250;SDS011;55066;51.560;4.642;2023-09-18T05:37:48;6.20;;;2.50;;
68250;SDS011;55066;51.560;4.642;2023-09-18T05:40:16;5.32;;;2.70;;
68250;SDS011;55066;51.560;4.642;2023-09-18T05:42:43;5.55;;;2.70;;
68250;SDS011;55066;51.560;4.642;2023-09-18T05:45:09;6.05;;;2.88;;
68250;SDS011;55066;51.560;4.642;2023-09-18T05:47:36;6.03;;;3.00;;
68250;SDS011;55066;51.560;4.642;2023-09-18T05:50:04;9.30;;;3.20;;
68250;SDS011;55066;51.560;4.642;2023-09-18T05:52:32;8.20;;;3.67;;
68250;SDS011;55066;51.560;4.642;2023-09-18T05:54:58;8.10;;;3.63;;
68250;SDS011;55066;51.560;4.642;2023-09-18T05:57:24;9.75;;;4.07;;
68250;SDS011;55066;51.560;4.642;2023-09-18T05:59:49;9.73;;;4.23;;
68250;SDS011;55066;51.560;4.642;2023-09-18T06:02:15;10.17;;;4.60;;
68250;SDS011;55066;51.560;4.642;2023-09-18T06:04:42;7.47;;;3.78;;
68250;SDS011;55066;51.560;4.642;2023-09-18T06:07:08;9.13;;;4.30;;
68250;SDS011;55066;51.560;4.642;2023-09-18T06:09:33;11.27;;;4.40;;
68250;SDS011;55066;51.560;4.642;2023-09-18T06:11:59;9.90;;;4.00;;
68250;SDS011;55066;51.560;4.642;2023-09-18T06:14:25;11.88;;;4.10;;
68250;SDS011;55066;51.560;4.642;2023-09-18T06:16:51;7.78;;;4.45;;
68250;SDS011;55066;51.560;4.642;2023-09-18T06:19:17;7.33;;;3.43;;
68250;SDS011;55066;51.560;4.642;2023-09-18T06:21:43;8.55;;;3.53;;
68250;SDS011;55066;51.560;4.642;2023-09-18T06:24:09;9.03;;;3.43;;
68250;SDS011;55066;51.560;4.642;2023-09-18T06:26:35;6.95;;;3.80;;
68250;SDS011;55066;51.560;4.642;2023-09-18T06:29:01;11.67;;;4.23;;
68250;SDS011;55066;51.560;4.642;2023-09-18T06:31:27;9.00;;;4.05;;
68250;SDS011;55066;51.560;4.642;2023-09-18T06:33:56;7.20;;;3.83;;
68250;SDS011;55066;51.560;4.642;2023-09-18T06:36:22;8.77;;;4.03;;
68250;SDS011;55066;51.560;4.642;2023-09-18T06:38:48;8.43;;;4.20;;
68250;SDS011;55066;51.560;4.642;2023-09-18T06:41:14;14.20;;;4.23;;
68250;SDS011;55066;51.560;4.642;2023-09-18T06:43:40;12.23;;;4.10;;
68250;SDS011;55066;51.560;4.642;2023-09-18T06:46:07;12.57;;;4.03;;
68250;SDS011;55066;51.560;4.642;2023-09-18T06:48:32;9.07;;;4.15;;
68250;SDS011;55066;51.560;4.642;2023-09-18T06:50:58;7.93;;;4.07;;
68250;SDS011;55066;51.560;4.642;2023-09-18T06:53:26;11.02;;;4.25;;
68250;SDS011;55066;51.560;4.642;2023-09-18T06:55:53;9.40;;;4.10;;
68250;SDS011;55066;51.560;4.642;2023-09-18T06:58:18;10.27;;;4.40;;
68250;SDS011;55066;51.560;4.642;2023-09-18T07:00:44;10.70;;;3.90;;
68250;SDS011;55066;51.560;4.642;2023-09-18T07:03:10;9.52;;;4.25;;
68250;SDS011;55066;51.560;4.642;2023-09-18T07:05:36;8.90;;;3.90;;
68250;SDS011;55066;51.560;4.642;2023-09-18T07:08:02;7.80;;;3.83;;
68250;SDS011;55066;51.560;4.642;2023-09-18T07:10:30;12.20;;;4.28;;
68250;SDS011;55066;51.560;4.642;2023-09-18T07:12:58;10.60;;;3.75;;
68250;SDS011;55066;51.560;4.642;2023-09-18T07:15:23;8.87;;;3.87;;
68250;SDS011;55066;51.560;4.642;2023-09-18T07:17:49;13.18;;;4.07;;
68250;SDS011;55066;51.560;4.642;2023-09-18T07:20:15;7.07;;;3.93;;
68250;SDS011;55066;51.560;4.642;2023-09-18T07:22:44;10.98;;;4.30;;
68250;SDS011;55066;51.560;4.642;2023-09-18T07:25:10;9.27;;;4.43;;
68250;SDS011;55066;51.560;4.642;2023-09-18T07:27:36;8.73;;;4.38;;
68250;SDS011;55066;51.560;4.642;2023-09-18T07:30:04;8.70;;;4.38;;
68250;SDS011;55066;51.560;4.642;2023-09-18T07:32:30;11.47;;;4.40;;
68250;SDS011;55066;51.560;4.642;2023-09-18T07:34:55;7.30;;;4.00;;
68250;SDS011;55066;51.560;4.642;2023-09-18T07:37:22;11.80;;;3.77;;
68250;SDS011;55066;51.560;4.642;2023-09-18T07:39:48;10.50;;;3.70;;
68250;SDS011;55066;51.560;4.642;2023-09-18T07:42:14;8.00;;;3.50;;
68250;SDS011;55066;51.560;4.642;2023-09-18T07:44:39;8.23;;;3.67;;
68250;SDS011;55066;51.560;4.642;2023-09-18T07:47:05;8.10;;;3.80;;
68250;SDS011;55066;51.560;4.642;2023-09-18T07:49:30;6.88;;;3.75;;
68250;SDS011;55066;51.560;4.642;2023-09-18T07:51:56;7.67;;;3.90;;
68250;SDS011;55066;51.560;4.642;2023-09-18T07:54:21;10.57;;;4.70;;
68250;SDS011;55066;51.560;4.642;2023-09-18T07:56:47;10.47;;;5.00;;
68250;SDS011;55066;51.560;4.642;2023-09-18T07:59:13;11.25;;;5.22;;
68250;SDS011;55066;51.560;4.642;2023-09-18T08:01:39;12.15;;;6.10;;
68250;SDS011;55066;51.560;4.642;2023-09-18T08:04:06;11.10;;;4.93;;
68250;SDS011;55066;51.560;4.642;2023-09-18T08:06:31;10.53;;;4.80;;
68250;SDS011;55066;51.560;4.642;2023-09-18T08:08:57;8.70;;;4.60;;
68250;SDS011;55066;51.560;4.642;2023-09-18T08:11:23;9.80;;;4.50;;
68250;SDS011;55066;51.560;4.642;2023-09-18T08:13:49;14.03;;;5.03;;
68250;SDS011;55066;51.560;4.642;2023-09-18T08:16:16;12.23;;;5.60;;
68250;SDS011;55066;51.560;4.642;2023-09-18T08:18:43;11.77;;;5.32;;
68250;SDS011;55066;51.560;4.642;2023-09-18T08:21:08;11.57;;;5.13;;
68250;SDS011;55066;51.560;4.642;2023-09-18T08:23:35;11.13;;;5.10;;
68250;SDS011;55066;51.560;4.642;2023-09-18T08:26:01;13.07;;;6.30;;
68250;SDS011;55066;51.560;4.642;2023-09-18T08:28:29;12.77;;;6.77;;
68250;SDS011;55066;51.560;4.642;2023-09-18T08:30:55;15.52;;;7.70;;
68250;SDS011;55066;51.560;4.642;2023-09-18T08:33:20;11.88;;;6.53;;
68250;SDS011;55066;51.560;4.642;2023-09-18T08:35:46;12.07;;;5.73;;
68250;SDS011;55066;51.560;4.642;2023-09-18T08:38:12;11.40;;;5.93;;
68250;SDS011;55066;51.560;4.642;2023-09-18T08:40:40;11.77;;;6.05;;
68250;SDS011;55066;51.560;4.642;2023-09-18T08:43:07;13.00;;;6.82;;
68250;SDS011;55066;51.560;4.642;2023-09-18T08:45:52;11.70;;;5.50;;
68250;SDS011;55066;51.560;4.642;2023-09-18T08:48:19;10.90;;;5.80;;
68250;SDS011;55066;51.560;4.642;2023-09-18T08:50:46;10.05;;;5.28;;
68250;SDS011;55066;51.560;4.642;2023-09-18T08:53:12;7.30;;;4.88;;
68250;SDS011;55066;51.560;4.642;2023-09-18T08:55:38;7.90;;;4.80;;
68250;SDS011;55066;51.560;4.642;2023-09-18T08:58:05;9.75;;;4.85;;
68250;SDS011;55066;51.560;4.642;2023-09-18T09:00:32;10.07;;;4.90;;
68250;SDS011;55066;51.560;4.642;2023-09-18T09:02:57;11.10;;;5.13;;
68250;SDS011;55066;51.560;4.642;2023-09-18T09:05:24;10.90;;;5.35;;
68250;SDS011;55066;51.560;4.642;2023-09-18T09:07:50;6.50;;;4.60;;
68250;SDS011;55066;51.560;4.642;2023-09-18T09:10:16;10.73;;;4.90;;
68250;SDS011;55066;51.560;4.642;2023-09-18T09:12:56;12.18;;;4.93;;
68250;SDS011;55066;51.560;4.642;2023-09-18T09:15:24;10.48;;;4.50;;
68250;SDS011;55066;51.560;4.642;2023-09-18T09:18:01;9.13;;;4.55;;
68250;SDS011;55066;51.560;4.642;2023-09-18T09:20:28;8.80;;;4.70;;
68250;SDS011;55066;51.560;4.642;2023-09-18T09:22:59;11.48;;;5.25;;
68250;SDS011;55066;51.560;4.642;2023-09-18T09:25:29;11.75;;;5.35;;
68250;SDS011;55066;51.560;4.642;2023-09-18T09:27:57;13.77;;;6.77;;
68250;SDS011;55066;51.560;4.642;2023-09-18T09:30:24;11.68;;;6.22;;
68250;SDS011;55066;51.560;4.642;2023-09-18T09:32:51;11.65;;;5.70;;
68250;SDS011;55066;51.560;4.642;2023-09-18T09:35:22;8.48;;;5.80;;
68250;SDS011;55066;51.560;4.642;2023-09-18T09:37:52;10.35;;;5.50;;
68250;SDS011;55066;51.560;4.642;2023-09-18T09:40:45;8.50;;;5.30;;
68250;SDS011;55066;51.560;4.642;2023-09-18T09:43:12;8.65;;;5.22;;
68250;SDS011;55066;51.560;4.642;2023-09-18T09:45:41;12.17;;;5.50;;
68250;SDS011;55066;51.560;4.642;2023-09-18T09:48:08;8.88;;;5.10;;
68250;SDS011;55066;51.560;4.642;2023-09-18T09:50:34;13.80;;;5.35;;
68250;SDS011;55066;51.560;4.642;2023-09-18T09:53:11;8.82;;;5.78;;
68250;SDS011;55066;51.560;4.642;2023-09-18T09:55:38;11.60;;;5.87;;
68250;SDS011;55066;51.560;4.642;2023-09-18T09:58:04;10.45;;;6.10;;
68250;SDS011;55066;51.560;4.642;2023-09-18T10:00:32;8.90;;;6.13;;
68250;SDS011;55066;51.560;4.642;2023-09-18T10:03:06;10.20;;;6.53;;
68250;SDS011;55066;51.560;4.642;2023-09-18T10:05:37;11.93;;;6.07;;
68250;SDS011;55066;51.560;4.642;2023-09-18T10:10:37;12.45;;;6.80;;
68250;SDS011;55066;51.560;4.642;2023-09-18T10:13:23;19.88;;;9.35;;
68250;SDS011;55066;51.560;4.642;2023-09-18T10:15:57;15.40;;;8.90;;
68250;SDS011;55066;51.560;4.642;2023-09-18T10:18:39;14.57;;;8.77;;
68250;SDS011;55066;51.560;4.642;2023-09-18T10:24:19;13.18;;;8.30;;
68250;SDS011;55066;51.560;4.642;2023-09-18T10:26:55;12.43;;;7.43;;
68250;SDS011;55066;51.560;4.642;2023-09-18T10:29:25;11.33;;;6.00;;
68250;SDS011;55066;51.560;4.642;2023-09-18T10:31:52;16.10;;;8.90;;
68250;SDS011;55066;51.560;4.642;2023-09-18T10:34:19;17.35;;;9.05;;
68250;SDS011;55066;51.560;4.642;2023-09-18T10:36:46;11.63;;;5.38;;
68250;SDS011;55066;51.560;4.642;2023-09-18T10:39:13;8.23;;;4.68;;
68250;SDS011;55066;51.560;4.642;2023-09-18T10:41:45;9.03;;;5.57;;
68250;SDS011;55066;51.560;4.642;2023-09-18T10:44:12;9.85;;;5.13;;
68250;SDS011;55066;51.560;4.642;2023-09-18T10:46:39;12.18;;;5.22;;
68250;SDS011;55066;51.560;4.642;2023-09-18T10:49:04;6.30;;;4.10;;
68250;SDS011;55066;51.560;4.642;2023-09-18T10:51:31;12.35;;;4.20;;
68250;SDS011;55066;51.560;4.642;2023-09-18T10:53:59;10.35;;;3.80;;
68250;SDS011;55066;51.560;4.642;2023-09-18T10:56:25;10.90;;;4.10;;
68250;SDS011;55066;51.560;4.642;2023-09-18T10:59:00;10.25;;;4.25;;
68250;SDS011;55066;51.560;4.642;2023-09-18T11:01:28;8.63;;;3.73;;
68250;SDS011;55066;51.560;4.642;2023-09-18T11:04:01;10.60;;;4.00;;
68250;SDS011;55066;51.560;4.642;2023-09-18T11:06:28;7.53;;;3.95;;
68250;SDS011;55066;51.560;4.642;2023-09-18T11:09:01;8.73;;;4.10;;
68250;SDS011;55066;51.560;4.642;2023-09-18T11:11:29;9.60;;;4.90;;
68250;SDS011;55066;51.560;4.642;2023-09-18T11:13:58;10.77;;;4.82;;
68250;SDS011;55066;51.560;4.642;2023-09-18T11:21:26;9.35;;;5.38;;
68250;SDS011;55066;51.560;4.642;2023-09-18T11:26:35;7.93;;;5.10;;
68250;SDS011;55066;51.560;4.642;2023-09-18T11:29:03;14.35;;;5.60;;
68250;SDS011;55066;51.560;4.642;2023-09-18T11:36:47;9.73;;;6.03;;
68250;SDS011;55066;51.560;4.642;2023-09-18T11:39:13;9.15;;;5.55;;
68250;SDS011;55066;51.560;4.642;2023-09-18T11:42:07;11.38;;;5.47;;
68250;SDS011;55066;51.560;4.642;2023-09-18T11:44:35;11.10;;;5.60;;
68250;SDS011;55066;51.560;4.642;2023-09-18T11:47:13;9.20;;;5.30;;
68250;SDS011;55066;51.560;4.642;2023-09-18T11:50:19;11.17;;;5.43;;
68250;SDS011;55066;51.560;4.642;2023-09-18T11:52:40;12.10;;;5.35;;
68250;SDS011;55066;51.560;4.642;2023-09-18T11:55:06;10.23;;;5.22;;
68250;SDS011;55066;51.560;4.642;2023-09-18T11:57:36;10.40;;;5.43;;
68250;SDS011;55066;51.560;4.642;2023-09-18T12:00:02;7.85;;;4.93;;
68250;SDS011;55066;51.560;4.642;2023-09-18T12:02:38;7.33;;;5.10;;
68250;SDS011;55066;51.560;4.642;2023-09-18T12:05:10;7.82;;;4.40;;
68250;SDS011;55066;51.560;4.642;2023-09-18T12:07:39;10.50;;;4.78;;
68250;SDS011;55066;51.560;4.642;2023-09-18T12:10:09;8.90;;;4.35;;
68250;SDS011;55066;51.560;4.642;2023-09-18T12:12:35;10.18;;;4.45;;
68250;SDS011;55066;51.560;4.642;2023-09-18T12:15:01;7.77;;;4.47;;
68250;SDS011;55066;51.560;4.642;2023-09-18T12:17:27;7.28;;;4.57;;
68250;SDS011;55066;51.560;4.642;2023-09-18T12:19:53;6.63;;;4.10;;
68250;SDS011;55066;51.560;4.642;2023-09-18T12:22:26;13.65;;;4.60;;
68250;SDS011;55066;51.560;4.642;2023-09-18T12:24:52;7.90;;;3.97;;
68250;SDS011;55066;51.560;4.642;2023-09-18T12:27:18;6.03;;;3.60;;
68250;SDS011;55066;51.560;4.642;2023-09-18T12:29:44;9.60;;;3.60;;
68250;SDS011;55066;51.560;4.642;2023-09-18T12:32:10;5.90;;;3.10;;
68250;SDS011;55066;51.560;4.642;2023-09-18T12:34:40;5.78;;;3.08;;
68250;SDS011;55066;51.560;4.642;2023-09-18T12:37:07;8.75;;;2.90;;
68250;SDS011;55066;51.560;4.642;2023-09-18T12:39:36;6.75;;;2.70;;
68250;SDS011;55066;51.560;4.642;2023-09-18T12:42:01;7.67;;;3.27;;
68250;SDS011;55066;51.560;4.642;2023-09-18T12:44:28;4.68;;;2.75;;
68250;SDS011;55066;51.560;4.642;2023-09-18T12:46:54;5.50;;;3.00;;
68250;SDS011;55066;51.560;4.642;2023-09-18T12:49:20;7.63;;;2.80;;
68250;SDS011;55066;51.560;4.642;2023-09-18T12:51:57;5.93;;;2.80;;
68250;SDS011;55066;51.560;4.642;2023-09-18T12:57:12;6.03;;;3.60;;
68250;SDS011;55066;51.560;4.642;2023-09-18T12:59:40;6.90;;;3.07;;
68250;SDS011;55066;51.560;4.642;2023-09-18T13:02:06;8.15;;;3.20;;
68250;SDS011;55066;51.560;4.642;2023-09-18T13:04:35;9.83;;;2.90;;
68250;SDS011;55066;51.560;4.642;2023-09-18T13:07:02;8.00;;;3.20;;
68250;SDS011;55066;51.560;4.642;2023-09-18T13:09:38;4.55;;;2.55;;
68250;SDS011;55066;51.560;4.642;2023-09-18T13:12:04;9.02;;;2.70;;
68250;SDS011;55066;51.560;4.642;2023-09-18T13:14:56;6.82;;;2.50;;
68250;SDS011;55066;51.560;4.642;2023-09-18T13:17:24;4.33;;;2.67;;
68250;SDS011;55066;51.560;4.642;2023-09-18T13:19:50;8.00;;;2.45;;
68250;SDS011;55066;51.560;4.642;2023-09-18T13:22:25;5.17;;;2.27;;
68250;SDS011;55066;51.560;4.642;2023-09-18T13:24:57;5.10;;;2.05;;
68250;SDS011;55066;51.560;4.642;2023-09-18T13:27:24;3.88;;;2.10;;
68250;SDS011;55066;51.560;4.642;2023-09-18T13:29:51;3.30;;;2.00;;
68250;SDS011;55066;51.560;4.642;2023-09-18T13:32:17;8.15;;;2.28;;
68250;SDS011;55066;51.560;4.642;2023-09-18T13:34:43;4.90;;;2.10;;
68250;SDS011;55066;51.560;4.642;2023-09-18T13:37:10;4.35;;;2.20;;
68250;SDS011;55066;51.560;4.642;2023-09-18T13:39:35;3.42;;;2.13;;
68250;SDS011;55066;51.560;4.642;2023-09-18T13:42:01;5.03;;;2.30;;
68250;SDS011;55066;51.560;4.642;2023-09-18T13:44:28;6.13;;;2.30;;
68250;SDS011;55066;51.560;4.642;2023-09-18T13:46:53;4.50;;;2.20;;
68250;SDS011;55066;51.560;4.642;2023-09-18T13:49:19;4.37;;;2.03;;
68250;SDS011;55066;51.560;4.642;2023-09-18T13:51:44;4.70;;;2.03;;
68250;SDS011;55066;51.560;4.642;2023-09-18T13:54:10;4.37;;;2.00;;
68250;SDS011;55066;51.560;4.642;2023-09-18T13:56:35;4.57;;;2.10;;
68250;SDS011;55066;51.560;4.642;2023-09-18T13:59:01;5.80;;;2.30;;
68250;SDS011;55066;51.560;4.642;2023-09-18T14:01:26;5.60;;;2.37;;
68250;SDS011;55066;51.560;4.642;2023-09-18T14:03:53;5.68;;;2.10;;
68250;SDS011;55066;51.560;4.642;2023-09-18T14:06:19;3.63;;;2.10;;
68250;SDS011;55066;51.560;4.642;2023-09-18T14:08:44;4.33;;;2.13;;
68250;SDS011;55066;51.560;4.642;2023-09-18T14:11:10;4.20;;;1.73;;
68250;SDS011;55066;51.560;4.642;2023-09-18T14:13:35;3.88;;;1.80;;
68250;SDS011;55066;51.560;4.642;2023-09-18T14:16:01;4.40;;;1.43;;
68250;SDS011;55066;51.560;4.642;2023-09-18T14:18:28;8.65;;;1.40;;
68250;SDS011;55066;51.560;4.642;2023-09-18T14:20:54;6.17;;;1.33;;
68250;SDS011;55066;51.560;4.642;2023-09-18T14:23:20;3.85;;;0.93;;
68250;SDS011;55066;51.560;4.642;2023-09-18T14:25:46;4.33;;;0.90;;
68250;SDS011;55066;51.560;4.642;2023-09-18T14:28:11;6.18;;;0.77;;
68250;SDS011;55066;51.560;4.642;2023-09-18T14:30:38;4.73;;;0.90;;
68250;SDS011;55066;51.560;4.642;2023-09-18T14:33:04;3.75;;;0.77;;
68250;SDS011;55066;51.560;4.642;2023-09-18T14:35:30;5.97;;;1.77;;
68250;SDS011;55066;51.560;4.642;2023-09-18T14:37:55;4.20;;;1.77;;
68250;SDS011;55066;51.560;4.642;2023-09-18T14:40:22;4.60;;;1.27;;
68250;SDS011;55066;51.560;4.642;2023-09-18T14:42:48;5.25;;;1.60;;
68250;SDS011;55066;51.560;4.642;2023-09-18T14:45:14;7.20;;;1.40;;
68250;SDS011;55066;51.560;4.642;2023-09-18T14:47:39;6.10;;;1.30;;
68250;SDS011;55066;51.560;4.642;2023-09-18T14:50:05;4.80;;;1.60;;
68250;SDS011;55066;51.560;4.642;2023-09-18T14:52:31;2.93;;;1.40;;
68250;SDS011;55066;51.560;4.642;2023-09-18T14:54:57;3.22;;;1.40;;
68250;SDS011;55066;51.560;4.642;2023-09-18T14:57:25;2.80;;;1.48;;
68250;SDS011;55066;51.560;4.642;2023-09-18T14:59:51;3.00;;;1.27;;
68250;SDS011;55066;51.560;4.642;2023-09-18T15:02:17;3.20;;;1.30;;
68250;SDS011;55066;51.560;4.642;2023-09-18T15:04:43;3.55;;;1.25;;